Weather observations for the past three days for
Marysville Municipal Airport
Imperial (Metric)
Date Time (cdt) Wind (mph) Vis. (mi.) Weather Sky Cond. Temperature (ºF) Relative Humidity Wind Chill (°F) Heat Index (°F) Pressure Precipitation (in)
Air Dwpt 6 hour altimeter (in) sea level (mb) 1 hr 3 hr 6 hr
Max. Min.
09 13:35 W 14 G 24 10.00 Partly Cloudy SCT120 78.8 35.6 21% 78 29.79 0.0
09 13:15 W 18 G 25 10.00 Fair CLR 80.6 33.8 18% 79 29.78 0.0
09 12:55 W 14 G 22 10.00 Fair CLR 80.6 32 17% 79 29.78 0.0
09 12:35 W 15 G 22 10.00 Fair CLR 82.4 33.8 17% 80 29.78 0.0
09 12:15 W 13 G 25 10.00 Fair CLR 82.4 32 16% 80 29.79 0.0
09 11:55 W 16 G 25 10.00 Fair CLR 80.6 33.8 18% 79 29.79 0.0
09 11:35 W 13 10.00 Fair CLR 78.8 35.6 21% 78 29.8 0.0
09 11:15 SW 12 10.00 Fair CLR 78.8 35.6 21% 78 29.8 0.0
09 10:55 SW 9 10.00 Fair CLR 77 35.6 22% 77 29.8 0.0
09 10:35 SW 6 10.00 Fair CLR 73.4 37.4 27% 29.8 0.0
09 10:15 S 7 10.00 Fair CLR 69.8 41 35% 29.8 0.0
09 09:55 SW 9 10.00 Fair CLR 68 37.4 33% 29.81 0.0
09 09:35 S 6 10.00 Fair CLR 64.4 37.4 37% 29.8 0.0
09 09:15 S 5 10.00 Fair CLR 60.8 41 48% 29.81 0.0
09 08:55 S 6 10.00 Fair CLR 59 41 51% 29.82 0.0
09 08:35 SW 3 10.00 Fair CLR 55.4 42.8 63% 29.81 0.0
09 08:15 Calm 10.00 Fair CLR 53.6 42.8 67% 29.81 0.0
09 07:55 Calm 10.00 Fair CLR 51.8 42.8 72% 29.81 0.0
09 07:35 Calm 10.00 Fair CLR 50 42.8 76% 29.8 0.0
09 07:15 Calm 10.00 Fair CLR 46.4 44.6 93% 29.8 0.0
09 06:55 Calm 10.00 Fair CLR 44.6 42.8 93% 29.79 0.0
09 06:35 Calm 10.00 Fair CLR 44.6 42.8 93% 29.79 0.0
09 06:15 SW 3 10.00 Fair CLR 42.8 41 93% 29.79 0.0
09 05:55 S 3 10.00 Fair CLR 42.8 41 93% 29.79 0.0
09 05:35 S 3 10.00 Fair CLR 42.8 41 93% 29.78 0.0
09 05:15 S 3 10.00 Fair CLR 41 39.2 93% 29.79 0.0
09 04:35 Calm 10.00 Fair CLR 42.8 41 93% 29.79 0.0
09 04:15 Calm 10.00 Fair CLR 44.6 41 87% 29.79 0.0
09 03:55 Calm 10.00 Fair CLR 44.6 41 87% 29.79 0.0
09 03:35 Calm 10.00 Fair CLR 46.4 39.2 76% 29.79 0.0
09 03:15 Calm 10.00 Fair CLR 46.4 41 82% 29.79 0.0
09 02:55 Calm 10.00 Fair CLR 46.4 41 82% 29.79 0.0
09 02:35 Calm 10.00 Fair CLR 46.4 41 82% 29.79 0.0
09 02:15 Calm 10.00 Fair CLR 48.2 39.2 71% 29.8 0.0
09 01:55 Calm 10.00 Fair CLR 48.2 39.2 71% 29.8 0.0
09 01:35 SW 5 10.00 Fair CLR 53.6 41 63% 29.8 0.0
09 01:15 SW 7 10.00 Fair CLR 53.6 41 63% 29.79 0.0
09 00:55 SW 6 10.00 Fair CLR 53.6 41 63% 29.79 0.0
09 00:35 S 6 10.00 Fair CLR 53.6 41 63% 29.79 0.0
09 00:15 S 7 10.00 Fair CLR 53.6 41 63% 29.79 0.0
08 23:55 S 7 10.00 Fair CLR 55.4 41 59% 29.79 0.0
08 23:35 S 6 10.00 Fair CLR 55.4 41 59% 29.79 0.0
08 23:15 S 6 10.00 Fair CLR 55.4 41 59% 29.79 0.0
08 22:55 S 6 10.00 Fair CLR 55.4 41 59% 29.79 0.0
08 22:35 S 7 10.00 Fair CLR 57.2 41 55% 29.79 0.0
08 22:15 S 7 10.00 Fair CLR 59 41 51% 29.78 0.0
08 21:55 S 7 10.00 Fair CLR 60.8 41 48% 29.78 0.0
08 21:35 S 7 10.00 Fair CLR 60.8 39.2 45% 29.77 0.0
08 21:15 S 6 10.00 Fair CLR 60.8 41 48% 29.76 0.0
08 20:55 S 9 10.00 Fair CLR 62.6 39.2 42% 29.75 0.0
08 20:35 S 6 10.00 Fair CLR 64.4 39.2 40% 29.75 0.0
08 20:15 S 5 10.00 Fair CLR 64.4 37.4 37% 29.74 0.0
08 19:55 S 6 10.00 Fair CLR 68 37.4 33% 29.74 0.0
08 19:35 S 7 10.00 Fair CLR 69.8 37.4 31% 29.74 0.0
08 19:15 S 9 10.00 Fair CLR 71.6 35.6 27% 29.74 0.0
08 18:55 S 8 10.00 Fair CLR 71.6 37.4 29% 29.74 0.0
08 18:35 S 5 10.00 Fair CLR 71.6 35.6 27% 29.74 0.0
08 17:55 S 7 10.00 Fair CLR 73.4 37.4 27% 29.75 0.0
08 17:35 Calm 10.00 Fair CLR 73.4 35.6 25% 29.75 0.0
08 17:15 S 7 10.00 Fair CLR 73.4 37.4 27% 29.75 0.0
08 16:55 W 9 10.00 Fair CLR 73.4 37.4 27% 29.76 0.0
08 16:35 NW 6 10.00 Fair CLR 71.6 35.6 27% 29.76 0.0
08 16:15 S 6 10.00 Fair CLR 71.6 37.4 29% 29.77 0.0
08 15:55 S 6 10.00 Fair CLR 73.4 41 31% 29.78 0.0
08 15:35 W 5 10.00 Fair CLR 71.6 37.4 29% 29.79 0.0
08 15:15 SE 7 10.00 Fair CLR 71.6 39.2 31% 29.79 0.0
08 14:35 SE 7 10.00 Fair CLR 71.6 39.2 31% 29.8 0.0
08 14:15 SE 5 10.00 Partly Cloudy SCT100 68 37.4 33% 29.8 0.0
08 13:55 SE 5 10.00 Mostly Cloudy SCT065 BKN100 68 37.4 33% 29.8 0.0
08 13:35 SE 9 10.00 Mostly Cloudy SCT055 BKN075 BKN100 68 37.4 33% 29.8 0.0
08 13:15 SE 7 10.00 Overcast OVC100 68 37.4 33% 29.8 0.0
08 12:35 SE 9 10.00 Mostly Cloudy BKN100 68 33.8 28% 29.8 0.0
08 12:15 SE 12 G 16 10.00 Fair CLR 69.8 37.4 31% 29.8 0.0
08 11:55 SE 10 10.00 Partly Cloudy SCT120 68 39.2 35% 29.8 0.0
08 11:35 E 10 10.00 Mostly Cloudy BKN120 66.2 39.2 37% 29.81 0.0
08 11:15 E 6 10.00 Mostly Cloudy BKN120 64.4 39.2 40% 29.82 0.0
08 10:55 E 6 10.00 Overcast OVC110 62.6 39.2 42% 29.81 0.0
08 10:35 E 6 10.00 Overcast OVC110 62.6 41 45% 29.8 0.0
08 10:15 E 5 10.00 Overcast OVC110 60.8 41 48% 29.82 0.0
08 09:55 E 3 10.00 Mostly Cloudy BKN120 60.8 41 48% 29.81 0.0
08 09:35 E 8 10.00 Partly Cloudy SCT120 59 39.2 48% 29.8 0.0
08 09:15 NE 8 10.00 Fair CLR 59 41 51% 29.81 0.0
08 08:35 N 6 10.00 Fair CLR 55.4 44.6 67% 29.8 0.0
08 08:15 E 3 10.00 Mostly Cloudy BKN110 53.6 44.6 72% 29.79 0.0
08 07:55 NE 5 10.00 Overcast OVC110 53.6 44.6 72% 29.8 0.0
08 07:35 Calm 10.00 Overcast OVC110 53.6 42.8 67% 29.78 0.0
08 07:15 SE 3 7.00 Unknown Precip SCT060 SCT070 OVC100 51.8 42.8 72% 29.76 0.0
08 06:55 Calm 10.00 Overcast OVC100 53.6 37.4 54% 29.79 0.0
08 06:35 SE 5 10.00 Mostly Cloudy BKN110 53.6 37.4 54% 29.76 0.0
08 06:15 E 3 10.00 Partly Cloudy SCT110 53.6 37.4 54% 29.75 0.0
08 05:55 SE 6 10.00 Partly Cloudy SCT110 53.6 35.6 51% 29.76 0.0
08 05:35 SE 6 10.00 Mostly Cloudy BKN110 53.6 35.6 51% 29.76 0.0
08 05:15 S 5 10.00 Overcast OVC110 53.6 35.6 51% 29.78 0.0
08 04:55 E 5 10.00 Mostly Cloudy BKN110 53.6 35.6 51% 29.77 0.0
08 04:35 E 6 10.00 Partly Cloudy SCT110 53.6 35.6 51% 29.78 0.0
08 04:15 N 5 10.00 Mostly Cloudy BKN110 53.6 35.6 51% 29.79 0.0
08 03:55 N 9 10.00 Mostly Cloudy BKN110 53.6 41 63% 29.79 0.0
08 03:35 SE 3 10.00 Mostly Cloudy BKN120 50 41 71% 29.76 0.0
08 03:15 E 3 10.00 Mostly Cloudy SCT060 SCT080 BKN120 51.8 39.2 62% 29.77 0.0
08 02:55 Calm 10.00 Unknown Precip SCT050 BKN075 BKN100 53.6 41 63% 29.78 0.0
08 02:35 SE 3 10.00 Mostly Cloudy BKN110 53.6 37.4 54% 29.79 0.0
08 02:15 Calm 10.00 Mostly Cloudy BKN120 53.6 37.4 54% 29.79 0.0
08 01:55 E 3 10.00 Mostly Cloudy BKN110 53.6 37.4 54% 29.79 0.0
08 01:35 Calm 10.00 Mostly Cloudy BKN110 53.6 35.6 51% 29.8 0.0
08 01:15 S 9 10.00 Mostly Cloudy BKN120 55.4 35.6 47% 29.82 0.0
08 00:55 E 6 10.00 Partly Cloudy SCT120 55.4 33.8 44% 29.8 0.0
08 00:35 E 7 10.00 Partly Cloudy SCT120 55.4 32 41% 29.8 0.0
08 00:15 E 6 10.00 Partly Cloudy SCT120 53.6 30.2 41% 29.82 0.0
07 23:55 SE 5 10.00 Fair CLR 53.6 30.2 41% 29.82 0.0
07 23:35 SE 5 10.00 Fair CLR 55.4 30.2 38% 29.83 0.0
07 23:15 SE 5 10.00 Fair CLR 55.4 28.4 36% 29.83 0.0
07 22:55 E 5 10.00 Fair CLR 59 26.6 29% 29.82 0.0
07 22:35 SE 5 10.00 Fair CLR 59 28.4 31% 29.83 0.0
07 22:15 E 5 10.00 Fair CLR 60.8 28.4 29% 29.82 0.0
07 21:55 E 5 10.00 Fair CLR 60.8 28.4 29% 29.82 0.0
07 21:35 NE 3 10.00 Fair CLR 60.8 28.4 29% 29.82 0.0
07 21:15 Calm 10.00 Fair CLR 59 32 36% 29.81 0.0
07 20:55 Calm 10.00 Fair CLR 60.8 32 34% 29.8 0.0
07 20:35 Calm 10.00 Fair CLR 62.6 32 32% 29.79 0.0
07 20:15 Calm 10.00 Fair CLR 66.2 32 28% 29.79 0.0
07 19:55 Calm 10.00 Fair CLR 69.8 28.4 21% 29.78 0.0
07 19:35 NW 3 10.00 Fair CLR 71.6 30.2 22% 29.77 0.0
07 19:15 SW 5 10.00 Fair CLR 73.4 32 22% 29.77 0.0
07 18:55 W 6 10.00 Fair CLR 75.2 28.4 18% 76 29.77 0.0
07 18:35 W 8 10.00 Fair CLR 75.2 30.2 19% 76 29.78 0.0
07 18:15 W 7 G 17 10.00 Fair CLR 77 30.2 18% 77 29.78 0.0
07 17:55 W 8 10.00 Fair CLR 77 30.2 18% 77 29.78 0.0
07 17:35 W 13 G 17 10.00 Fair CLR 77 28.4 17% 77 29.79 0.0
07 17:15 W 13 10.00 Fair CLR 77 26.6 15% 77 29.79 0.0
07 16:55 W 13 G 18 10.00 Fair CLR 77 28.4 17% 77 29.79 0.0
07 16:35 W 10 G 20 10.00 Fair CLR 77 26.6 15% 77 29.8 0.0
07 16:15 W 12 10.00 Fair CLR 77 23 13% 76 29.8 0.0
07 15:55 W 15 G 28 10.00 Fair CLR 75.2 24.8 15% 75 29.81 0.0
07 15:35 W 12 G 24 10.00 Fair CLR 75.2 26.6 16% 76 29.82 0.0
07 15:15 W 13 G 28 10.00 Fair CLR 73.4 28.4 19% 29.82 0.0
07 14:55 W 17 G 29 10.00 Fair CLR 73.4 28.4 19% 29.83 0.0
07 14:35 W 15 G 26 10.00 Fair CLR 73.4 30.2 20% 29.84 0.0
07 14:15 SW 14 G 29 10.00 Fair CLR 71.6 32 23% 29.85 0.0
07 13:55 SW 13 G 24 10.00 Fair CLR 71.6 32 23% 29.85 0.0
07 13:35 SW 15 G 24 10.00 Fair CLR 69.8 32 25% 29.85 0.0
07 13:15 SW 18 G 26 10.00 Fair CLR 69.8 32 25% 29.86 0.0
07 12:55 SW 14 G 26 10.00 Fair CLR 68 32 26% 29.87 0.0
07 12:35 SW 15 G 28 10.00 Fair CLR 68 32 26% 29.88 0.0
07 12:15 SW 16 G 22 10.00 Fair CLR 66.2 33.8 30% 29.9 0.0
07 11:55 SW 16 G 23 10.00 Fair CLR 64.4 33.8 32% 29.91 0.0
07 11:35 SW 15 G 24 10.00 Fair CLR 64.4 33.8 32% 29.92 0.0
07 11:15 S 17 G 21 10.00 Fair CLR 62.6 35.6 37% 29.92 0.0
07 10:55 S 13 G 17 10.00 Fair CLR 60.8 35.6 39% 29.92 0.0
07 10:35 SW 13 G 23 10.00 Fair CLR 60.8 35.6 39% 29.94 0.0
07 10:15 SW 15 10.00 Fair CLR 59 35.6 42% 29.94 0.0
07 09:55 SW 14 10.00 Fair CLR 59 35.6 42% 29.95 0.0
07 09:35 SW 12 G 18 10.00 Fair CLR 55.4 35.6 47% 29.96 0.0
07 09:15 SW 12 G 17 10.00 Fair CLR 53.6 37.4 54% 29.97 0.0
07 08:55 SW 13 10.00 Fair CLR 53.6 35.6 51% 29.97 0.0
07 08:35 SW 10 10.00 Fair CLR 51.8 37.4 58% 29.97 0.0
07 08:15 SW 9 G 20 10.00 Fair CLR 50 37.4 62% 47 29.98 0.0
07 07:55 SW 9 10.00 Fair CLR 46.4 37.4 71% 42 29.98 0.0
07 07:35 SW 9 10.00 Fair CLR 44.6 37.4 76% 40 29.97 0.0
07 07:15 SW 8 10.00 Fair CLR 44.6 37.4 76% 41 29.97 0.0
07 06:55 SW 9 10.00 Fair CLR 42.8 35.6 76% 38 29.97 0.0
07 06:35 SW 7 10.00 Fair CLR 42.8 37.4 81% 39 29.98 0.0
07 06:15 SW 8 10.00 Fair CLR 42.8 37.4 81% 39 29.98 0.0
07 05:55 SW 7 10.00 Fair CLR 42.8 35.6 76% 39 29.98 0.0
07 05:35 SW 7 10.00 Fair CLR 42.8 35.6 76% 39 29.98 0.0
07 05:15 SW 3 10.00 Fair CLR 42.8 35.6 76% 29.99 0.0
07 04:55 SW 3 10.00 Fair CLR 42.8 37.4 81% 29.99 0.0
07 04:35 SW 5 10.00 Fair CLR 42.8 37.4 81% 41 29.99 0.0
07 04:15 SW 6 10.00 Fair CLR 42.8 35.6 76% 40 30 0.0
07 03:55 S 6 10.00 Fair CLR 42.8 35.6 76% 40 30 0.0
07 03:35 SW 6 10.00 Fair CLR 42.8 35.6 76% 40 30 0.0
07 03:15 S 5 10.00 Fair CLR 41 33.8 76% 38 30.01 0.0
07 02:55 S 5 10.00 Fair CLR 41 33.8 76% 38 30.01 0.0
07 02:15 S 6 10.00 Fair CLR 42.8 33.8 71% 40 30.02 0.0
07 01:55 S 5 10.00 Fair CLR 42.8 33.8 71% 41 30.03 0.0
07 01:35 S 5 10.00 Fair CLR 42.8 32 66% 41 30.03 0.0
07 01:15 S 6 10.00 Fair CLR 42.8 32 66% 40 30.04 0.0
07 00:55 S 5 10.00 Fair CLR 42.8 32 66% 41 30.04 0.0
07 00:35 S 3 10.00 Fair CLR 44.6 32 61% 30.05 0.0
07 00:15 SW 6 10.00 Fair CLR 44.6 30.2 57% 42 30.05 0.0
06 23:55 S 5 10.00 Fair CLR 44.6 30.2 57% 43 30.05 0.0
06 23:35 S 6 10.00 Fair CLR 44.6 30.2 57% 42 30.05 0.0
06 23:15 S 5 10.00 Fair CLR 46.4 30.2 53% 45 30.05 0.0
06 22:55 S 3 10.00 Fair CLR 48.2 30.2 50% 30.05 0.0
06 22:35 SW 5 10.00 Fair CLR 50 28.4 43% 49 30.05 0.0
06 22:15 SW 6 10.00 Fair CLR 50 28.4 43% 48 30.05 0.0
06 21:35 S 3 10.00 Fair CLR 50 30.2 47% 30.04 0.0
06 21:15 Calm 10.00 Fair CLR 48.2 28.4 46% 30.03 0.0
06 20:55 S 3 10.00 Fair CLR 50 28.4 43% 30.03 0.0
06 20:35 S 3 10.00 Fair CLR 51.8 24.8 35% 30.03 0.0
06 20:15 Calm 10.00 Fair CLR 55.4 21.2 26% 30.03 0.0
06 19:55 Calm 10.00 Fair CLR 55.4 19.4 24% 30.02 0.0
06 19:35 NW 5 10.00 Fair CLR 59 19.4 21% 30.03 0.0
06 19:15 W 7 10.00 Fair CLR 59 19.4 21% 30.03 0.0
06 18:55 NW 7 10.00 Fair CLR 60.8 17.6 19% 30.03 0.0
06 18:35 W 9 10.00 Fair CLR 60.8 17.6 19% 30.03 0.0
06 18:15 NW 7 10.00 Fair CLR 59 17.6 20% 30.04 0.0
06 17:55 W 7 10.00 Partly Cloudy SCT080 60.8 17.6 19% 30.04 0.0
06 17:35 NW 9 10.00 Mostly Cloudy BKN080 62.6 15.8 16% 30.04 0.0
06 16:55 W 5 10.00 Fair CLR 59 17.6 20% 30.05 0.0
06 16:35 W 8 G 16 10.00 Fair CLR 62.6 17.6 17% 30.06 0.0
06 16:15 NW 7 10.00 Fair CLR 60.8 17.6 19% 30.07 0.0
06 15:55 NW 3 10.00 Partly Cloudy SCT080 60.8 17.6 19% 30.07 0.0
06 15:35 S 5 10.00 Mostly Cloudy BKN080 60.8 19.4 20% 30.08 0.0
06 15:15 NW 8 10.00 Partly Cloudy SCT080 60.8 17.6 19% 30.09 0.0
06 14:55 NW 10 G 20 10.00 Partly Cloudy SCT080 60.8 17.6 19% 30.1 0.0
06 14:35 N 9 G 17 10.00 Partly Cloudy SCT080 59 15.8 18% 30.1 0.0
06 14:15 N 12 10.00 Fair CLR 59 14 17% 30.1 0.0
Date Time (cdt) Wind (mph) Vis. (mi.) Weather Sky Cond. Air Dwpt Max. Min. Relative Humidity Wind Chill (°F) Heat Index (°F) altimeter (in) sea level (mb) 1 hr 3 hr 6 hr
6 hour
Temperature (ºF) Pressure Precipitation (in)